sensor_id;sensor_type;location;lat;lon;timestamp;pressure;altitude;pressure_sealevel;temperature;humidity
74895;BME280;63447;49.446;8.666;2023-02-26T00:01:13;100140.75;;;0.50;58.56
74895;BME280;63447;49.446;8.666;2023-02-26T00:03:38;100138.03;;;0.70;57.39
74895;BME280;63447;49.446;8.666;2023-02-26T00:06:04;100136.94;;;0.71;57.45
74895;BME280;63447;49.446;8.666;2023-02-26T00:08:33;100135.81;;;0.82;56.75
74895;BME280;63447;49.446;8.666;2023-02-26T00:11:04;100132.00;;;0.78;56.97
74895;BME280;63447;49.446;8.666;2023-02-26T00:13:30;100143.44;;;0.65;57.36
74895;BME280;63447;49.446;8.666;2023-02-26T00:15:58;100138.56;;;0.52;57.59
74895;BME280;63447;49.446;8.666;2023-02-26T00:18:26;100135.84;;;0.47;57.13
74895;BME280;63447;49.446;8.666;2023-02-26T00:20:53;100136.13;;;0.40;57.09
74895;BME280;63447;49.446;8.666;2023-02-26T00:23:18;100132.59;;;0.40;57.46
74895;BME280;63447;49.446;8.666;2023-02-26T00:25:44;100132.56;;;0.34;58.35
74895;BME280;63447;49.446;8.666;2023-02-26T00:28:13;100126.59;;;0.17;58.39
74895;BME280;63447;49.446;8.666;2023-02-26T00:30:38;100133.38;;;0.15;59.66
74895;BME280;63447;49.446;8.666;2023-02-26T00:33:04;100109.75;;;0.00;59.38
74895;BME280;63447;49.446;8.666;2023-02-26T00:35:31;100136.13;;;0.25;58.68
74895;BME280;63447;49.446;8.666;2023-02-26T00:38:00;100140.72;;;0.24;58.07
74895;BME280;63447;49.446;8.666;2023-02-26T00:40:46;100147.78;;;0.25;57.93
74895;BME280;63447;49.446;8.666;2023-02-26T00:43:16;100142.59;;;0.29;58.74
74895;BME280;63447;49.446;8.666;2023-02-26T00:46:48;100145.59;;;0.32;57.76
74895;BME280;63447;49.446;8.666;2023-02-26T00:51:54;100116.03;;;0.41;58.20
74895;BME280;63447;49.446;8.666;2023-02-26T00:54:25;100144.25;;;0.71;57.30
74895;BME280;63447;49.446;8.666;2023-02-26T00:56:54;100117.66;;;0.62;55.71
74895;BME280;63447;49.446;8.666;2023-02-26T00:59:20;100146.13;;;0.85;55.71
74895;BME280;63447;49.446;8.666;2023-02-26T01:01:51;100150.22;;;0.83;56.35
74895;BME280;63447;49.446;8.666;2023-02-26T01:04:20;100149.41;;;0.72;56.40
74895;BME280;63447;49.446;8.666;2023-02-26T01:06:49;100153.22;;;0.66;56.40
74895;BME280;63447;49.446;8.666;2023-02-26T01:11:50;100153.22;;;0.61;56.36
74895;BME280;63447;49.446;8.666;2023-02-26T01:14:19;100148.34;;;0.43;56.89
74895;BME280;63447;49.446;8.666;2023-02-26T01:16:51;100145.06;;;0.25;57.72
74895;BME280;63447;49.446;8.666;2023-02-26T01:19:27;100142.06;;;0.27;58.38
74895;BME280;63447;49.446;8.666;2023-02-26T01:22:17;100118.47;;;0.22;57.43
74895;BME280;63447;49.446;8.666;2023-02-26T01:24:47;100153.22;;;0.46;56.82
74895;BME280;63447;49.446;8.666;2023-02-26T01:27:13;100128.47;;;0.12;58.16
74895;BME280;63447;49.446;8.666;2023-02-26T01:29:38;100141.53;;;0.30;58.53
74895;BME280;63447;49.446;8.666;2023-02-26T01:32:22;100140.44;;;0.16;58.50
74895;BME280;63447;49.446;8.666;2023-02-26T01:38:00;100141.81;;;0.23;58.48
74895;BME280;63447;49.446;8.666;2023-02-26T01:43:37;100137.72;;;0.21;58.64
74895;BME280;63447;49.446;8.666;2023-02-26T01:46:17;100152.66;;;0.18;58.48
74895;BME280;63447;49.446;8.666;2023-02-26T01:48:54;100129.84;;;-0.01;59.17
74895;BME280;63447;49.446;8.666;2023-02-26T01:51:46;100155.06;;;0.10;58.23
74895;BME280;63447;49.446;8.666;2023-02-26T01:54:13;100130.91;;;-0.02;59.25
74895;BME280;63447;49.446;8.666;2023-02-26T01:56:39;100142.28;;;0.05;60.86
74895;BME280;63447;49.446;8.666;2023-02-26T01:59:06;100154.50;;;-0.08;60.28
74895;BME280;63447;49.446;8.666;2023-02-26T02:01:37;100145.81;;;-0.05;61.91
74895;BME280;63447;49.446;8.666;2023-02-26T02:04:10;100149.03;;;-0.13;62.67
74895;BME280;63447;49.446;8.666;2023-02-26T02:06:39;100150.34;;;-0.25;61.64
74895;BME280;63447;49.446;8.666;2023-02-26T02:09:05;100121.00;;;-0.54;61.89
74895;BME280;63447;49.446;8.666;2023-02-26T02:11:31;100134.59;;;-0.39;61.88
74895;BME280;63447;49.446;8.666;2023-02-26T02:16:54;100150.34;;;-0.25;62.87
74895;BME280;63447;49.446;8.666;2023-02-26T02:30:34;100161.69;;;-0.39;62.88
74895;BME280;63447;49.446;8.666;2023-02-26T02:33:05;100161.72;;;-0.33;62.51
74895;BME280;63447;49.446;8.666;2023-02-26T02:35:40;100149.22;;;-0.40;63.69
74895;BME280;63447;49.446;8.666;2023-02-26T02:38:33;100101.34;;;-0.86;64.21
74895;BME280;63447;49.446;8.666;2023-02-26T02:41:14;100163.78;;;-0.51;64.40
74895;BME280;63447;49.446;8.666;2023-02-26T02:43:46;100166.47;;;-0.61;65.58
74895;BME280;63447;49.446;8.666;2023-02-26T02:46:20;100174.00;;;-0.68;65.06
74895;BME280;63447;49.446;8.666;2023-02-26T02:48:52;100176.72;;;-0.68;66.33
74895;BME280;63447;49.446;8.666;2023-02-26T02:51:25;100175.09;;;-0.69;65.42
74895;BME280;63447;49.446;8.666;2023-02-26T02:54:12;100184.25;;;-0.75;65.18
74895;BME280;63447;49.446;8.666;2023-02-26T02:56:43;100155.72;;;-0.93;65.82
74895;BME280;63447;49.446;8.666;2023-02-26T03:02:03;100150.88;;;-0.91;63.88
74895;BME280;63447;49.446;8.666;2023-02-26T03:04:30;100178.91;;;-0.65;63.36
74895;BME280;63447;49.446;8.666;2023-02-26T03:06:56;100180.63;;;-0.54;62.91
74895;BME280;63447;49.446;8.666;2023-02-26T03:09:23;100143.06;;;-0.82;62.98
74895;BME280;63447;49.446;8.666;2023-02-26T03:11:51;100180.59;;;-0.59;62.18
74895;BME280;63447;49.446;8.666;2023-02-26T03:14:18;100198.53;;;-0.43;62.94
74895;BME280;63447;49.446;8.666;2023-02-26T03:24:30;100208.28;;;-0.42;62.15
74895;BME280;63447;49.446;8.666;2023-02-26T03:29:44;100207.22;;;-0.41;63.06
74895;BME280;63447;49.446;8.666;2023-02-26T03:32:18;100212.63;;;-0.41;62.91
74895;BME280;63447;49.446;8.666;2023-02-26T03:34:50;100206.13;;;-0.45;63.75
74895;BME280;63447;49.446;8.666;2023-02-26T03:37:21;100194.13;;;-0.59;63.71
74895;BME280;63447;49.446;8.666;2023-02-26T03:39:51;100169.66;;;-0.74;64.72
74895;BME280;63447;49.446;8.666;2023-02-26T03:44:56;100219.16;;;-0.84;64.48
74895;BME280;63447;49.446;8.666;2023-02-26T03:47:22;100225.16;;;-0.77;65.28
74895;BME280;63447;49.446;8.666;2023-02-26T03:52:34;100224.03;;;-0.86;65.22
74895;BME280;63447;49.446;8.666;2023-02-26T03:55:08;100228.72;;;-0.71;65.38
74895;BME280;63447;49.446;8.666;2023-02-26T03:57:35;100235.25;;;-0.67;64.88
74895;BME280;63447;49.446;8.666;2023-02-26T04:00:03;100218.88;;;-0.87;65.20
74895;BME280;63447;49.446;8.666;2023-02-26T04:02:41;100241.19;;;-0.70;65.45
74895;BME280;63447;49.446;8.666;2023-02-26T04:05:21;100244.19;;;-0.66;64.77
74895;BME280;63447;49.446;8.666;2023-02-26T04:07:48;100241.75;;;-0.68;65.75
74895;BME280;63447;49.446;8.666;2023-02-26T04:10:18;100240.06;;;-0.74;66.14
74895;BME280;63447;49.446;8.666;2023-02-26T04:12:44;100250.09;;;-0.75;65.83
74895;BME280;63447;49.446;8.666;2023-02-26T04:15:09;100247.38;;;-0.75;65.88
74895;BME280;63447;49.446;8.666;2023-02-26T04:17:35;100247.38;;;-0.80;66.68
74895;BME280;63447;49.446;8.666;2023-02-26T04:20:02;100249.25;;;-0.80;66.43
74895;BME280;63447;49.446;8.666;2023-02-26T04:22:32;100247.84;;;-0.88;66.50
74895;BME280;63447;49.446;8.666;2023-02-26T04:24:57;100247.34;;;-0.85;66.38
74895;BME280;63447;49.446;8.666;2023-02-26T04:27:23;100256.84;;;-0.77;65.81
74895;BME280;63447;49.446;8.666;2023-02-26T04:29:48;100262.25;;;-0.82;66.60
74895;BME280;63447;49.446;8.666;2023-02-26T04:32:16;100260.00;;;-0.90;67.16
74895;BME280;63447;49.446;8.666;2023-02-26T04:34:44;100264.31;;;-0.94;67.06
74895;BME280;63447;49.446;8.666;2023-02-26T04:37:09;100254.75;;;-1.02;67.79
74895;BME280;63447;49.446;8.666;2023-02-26T04:39:37;100279.94;;;-1.02;67.79
74895;BME280;63447;49.446;8.666;2023-02-26T04:42:03;100262.50;;;-1.16;67.89
74895;BME280;63447;49.446;8.666;2023-02-26T04:44:30;100291.72;;;-1.18;68.82
74895;BME280;63447;49.446;8.666;2023-02-26T04:46:56;100294.63;;;-1.24;68.73
74895;BME280;63447;49.446;8.666;2023-02-26T04:49:22;100292.44;;;-1.27;68.86
74895;BME280;63447;49.446;8.666;2023-02-26T04:51:47;100265.44;;;-1.49;68.47
74895;BME280;63447;49.446;8.666;2023-02-26T04:54:13;100291.47;;;-1.43;69.41
74895;BME280;63447;49.446;8.666;2023-02-26T04:56:41;100301.78;;;-1.40;69.95
74895;BME280;63447;49.446;8.666;2023-02-26T04:59:07;100299.78;;;-1.50;70.08
74895;BME280;63447;49.446;8.666;2023-02-26T05:01:32;100302.41;;;-1.33;69.06
74895;BME280;63447;49.446;8.666;2023-02-26T05:04:00;100300.28;;;-1.31;68.84
74895;BME280;63447;49.446;8.666;2023-02-26T05:06:25;100304.63;;;-1.30;69.07
74895;BME280;63447;49.446;8.666;2023-02-26T05:08:51;100299.78;;;-1.23;68.96
74895;BME280;63447;49.446;8.666;2023-02-26T05:11:16;100299.78;;;-1.23;68.19
74895;BME280;63447;49.446;8.666;2023-02-26T05:13:41;100289.97;;;-1.29;67.80
74895;BME280;63447;49.446;8.666;2023-02-26T05:16:07;100297.28;;;-1.29;67.51
74895;BME280;63447;49.446;8.666;2023-02-26T05:18:32;100303.56;;;-1.24;68.11
74895;BME280;63447;49.446;8.666;2023-02-26T05:20:58;100313.88;;;-1.21;67.57
74895;BME280;63447;49.446;8.666;2023-02-26T05:23:23;100307.47;;;-1.15;67.13
74895;BME280;63447;49.446;8.666;2023-02-26T05:25:49;100302.09;;;-1.10;66.66
74895;BME280;63447;49.446;8.666;2023-02-26T05:28:14;100299.66;;;-1.11;65.67
74895;BME280;63447;49.446;8.666;2023-02-26T05:30:40;100317.84;;;-1.02;65.64
74895;BME280;63447;49.446;8.666;2023-02-26T05:33:06;100324.13;;;-0.96;65.60
74895;BME280;63447;49.446;8.666;2023-02-26T05:35:32;100322.44;;;-1.02;65.64
74895;BME280;63447;49.446;8.666;2023-02-26T05:37:57;100317.00;;;-1.07;65.73
74895;BME280;63447;49.446;8.666;2023-02-26T05:40:25;100328.84;;;-0.86;65.50
74895;BME280;63447;49.446;8.666;2023-02-26T05:42:50;100340.50;;;-0.86;64.71
74895;BME280;63447;49.446;8.666;2023-02-26T05:45:16;100334.97;;;-0.96;65.90
74895;BME280;63447;49.446;8.666;2023-02-26T05:47:42;100343.41;;;-0.92;65.75
74895;BME280;63447;49.446;8.666;2023-02-26T05:50:08;100334.63;;;-1.05;65.99
74895;BME280;63447;49.446;8.666;2023-02-26T05:52:38;100334.72;;;-0.94;65.86
74895;BME280;63447;49.446;8.666;2023-02-26T05:55:07;100335.19;;;-1.03;66.20
74895;BME280;63447;49.446;8.666;2023-02-26T05:57:33;100350.50;;;-0.86;66.23
74895;BME280;63447;49.446;8.666;2023-02-26T05:59:58;100352.03;;;-0.95;66.18
74895;BME280;63447;49.446;8.666;2023-02-26T06:02:26;100357.19;;;-0.94;65.74
74895;BME280;63447;49.446;8.666;2023-02-26T06:04:51;100352.84;;;-0.95;66.59
74895;BME280;63447;49.446;8.666;2023-02-26T06:07:19;100361.59;;;-0.88;67.10
74895;BME280;63447;49.446;8.666;2023-02-26T06:09:45;100357.19;;;-0.94;66.71
74895;BME280;63447;49.446;8.666;2023-02-26T06:12:10;100370.91;;;-1.06;66.11
74895;BME280;63447;49.446;8.666;2023-02-26T06:14:35;100375.59;;;-1.23;66.91
74895;BME280;63447;49.446;8.666;2023-02-26T06:17:03;100364.19;;;-1.25;67.52
74895;BME280;63447;49.446;8.666;2023-02-26T06:19:29;100399.94;;;-1.23;66.64
74895;BME280;63447;49.446;8.666;2023-02-26T06:21:54;100404.34;;;-1.17;66.74
74895;BME280;63447;49.446;8.666;2023-02-26T06:24:22;100393.03;;;-1.14;67.11
74895;BME280;63447;49.446;8.666;2023-02-26T06:26:47;100394.28;;;-1.21;68.11
74895;BME280;63447;49.446;8.666;2023-02-26T06:29:15;100400.94;;;-1.29;67.65
74895;BME280;63447;49.446;8.666;2023-02-26T06:31:45;100407.31;;;-1.18;68.43
74895;BME280;63447;49.446;8.666;2023-02-26T06:34:11;100411.41;;;-1.16;67.41
74895;BME280;63447;49.446;8.666;2023-02-26T06:36:36;100420.16;;;-1.09;67.91
74895;BME280;63447;49.446;8.666;2023-02-26T06:39:03;100424.00;;;-1.05;67.94
74895;BME280;63447;49.446;8.666;2023-02-26T06:41:32;100433.72;;;-1.04;67.36
74895;BME280;63447;49.446;8.666;2023-02-26T06:44:00;100442.59;;;-0.86;67.01
74895;BME280;63447;49.446;8.666;2023-02-26T06:46:25;100454.50;;;-0.87;67.74
74895;BME280;63447;49.446;8.666;2023-02-26T06:48:51;100437.47;;;-1.10;67.53
74895;BME280;63447;49.446;8.666;2023-02-26T06:51:16;100462.19;;;-1.01;68.17
74895;BME280;63447;49.446;8.666;2023-02-26T06:53:41;100457.03;;;-1.03;67.12
74895;BME280;63447;49.446;8.666;2023-02-26T06:56:07;100467.84;;;-1.03;68.06
74895;BME280;63447;49.446;8.666;2023-02-26T06:58:33;100467.16;;;-0.93;67.85
74895;BME280;63447;49.446;8.666;2023-02-26T07:00:58;100474.53;;;-0.88;66.75
74895;BME280;63447;49.446;8.666;2023-02-26T07:03:26;100472.28;;;-0.70;67.08
74895;BME280;63447;49.446;8.666;2023-02-26T07:05:54;100465.91;;;-0.58;66.35
74895;BME280;63447;49.446;8.666;2023-02-26T07:08:21;100485.13;;;-0.60;66.47
74895;BME280;63447;49.446;8.666;2023-02-26T07:10:48;100489.63;;;-0.44;67.13
74895;BME280;63447;49.446;8.666;2023-02-26T07:13:18;100490.97;;;-0.14;67.78
74895;BME280;63447;49.446;8.666;2023-02-26T07:15:43;100493.16;;;-0.43;65.39
74895;BME280;63447;49.446;8.666;2023-02-26T07:18:08;100487.66;;;-0.21;65.27
74895;BME280;63447;49.446;8.666;2023-02-26T07:20:34;100487.22;;;-0.08;65.39
74895;BME280;63447;49.446;8.666;2023-02-26T07:23:00;100477.72;;;-0.11;64.17
74895;BME280;63447;49.446;8.666;2023-02-26T07:25:25;100486.16;;;-0.07;64.47
74895;BME280;63447;49.446;8.666;2023-02-26T07:27:51;100490.66;;;-0.18;64.65
74895;BME280;63447;49.446;8.666;2023-02-26T07:30:17;100485.09;;;-0.06;65.12
74895;BME280;63447;49.446;8.666;2023-02-26T07:32:42;100499.81;;;0.08;65.16
74895;BME280;63447;49.446;8.666;2023-02-26T07:35:08;100502.44;;;-0.07;65.37
74895;BME280;63447;49.446;8.666;2023-02-26T07:37:36;100505.44;;;-0.04;65.71
74895;BME280;63447;49.446;8.666;2023-02-26T07:40:02;100504.47;;;-0.19;65.13
74895;BME280;63447;49.446;8.666;2023-02-26T07:42:28;100504.66;;;0.01;64.69
74895;BME280;63447;49.446;8.666;2023-02-26T07:44:55;100503.44;;;-0.13;65.00
74895;BME280;63447;49.446;8.666;2023-02-26T07:47:23;100511.50;;;0.09;66.47
74895;BME280;63447;49.446;8.666;2023-02-26T07:49:48;100508.72;;;0.36;65.52
74895;BME280;63447;49.446;8.666;2023-02-26T07:52:16;100507.34;;;0.80;63.62
74895;BME280;63447;49.446;8.666;2023-02-26T07:54:42;100510.59;;;0.77;64.16
74895;BME280;63447;49.446;8.666;2023-02-26T07:57:10;100488.22;;;0.60;61.81
74895;BME280;63447;49.446;8.666;2023-02-26T07:59:35;100506.63;;;0.53;61.42
74895;BME280;63447;49.446;8.666;2023-02-26T08:02:00;100518.31;;;0.53;62.74
74895;BME280;63447;49.446;8.666;2023-02-26T08:04:28;100520.34;;;0.73;62.68
74895;BME280;63447;49.446;8.666;2023-02-26T08:06:54;100502.63;;;0.60;62.97
74895;BME280;63447;49.446;8.666;2023-02-26T08:09:23;100522.59;;;0.86;62.11
74895;BME280;63447;49.446;8.666;2023-02-26T08:11:50;100538.59;;;0.83;62.09
74895;BME280;63447;49.446;8.666;2023-02-26T08:14:15;100538.16;;;1.01;61.46
74895;BME280;63447;49.446;8.666;2023-02-26T08:16:40;100528.94;;;1.12;61.30
74895;BME280;63447;49.446;8.666;2023-02-26T08:19:06;100548.38;;;1.46;59.58
74895;BME280;63447;49.446;8.666;2023-02-26T08:21:31;100537.22;;;1.48;59.67
74895;BME280;63447;49.446;8.666;2023-02-26T08:23:56;100540.47;;;1.45;59.52
74895;BME280;63447;49.446;8.666;2023-02-26T08:26:24;100530.09;;;1.26;59.65
74895;BME280;63447;49.446;8.666;2023-02-26T08:28:49;100542.31;;;1.24;61.10
74895;BME280;63447;49.446;8.666;2023-02-26T08:31:15;100533.09;;;1.25;59.57
74895;BME280;63447;49.446;8.666;2023-02-26T08:33:43;100545.50;;;1.11;59.61
74895;BME280;63447;49.446;8.666;2023-02-26T08:36:09;100545.75;;;0.99;60.91
74895;BME280;63447;49.446;8.666;2023-02-26T08:38:35;100542.69;;;1.53;59.67
74895;BME280;63447;49.446;8.666;2023-02-26T08:41:00;100541.47;;;1.18;58.68
74895;BME280;63447;49.446;8.666;2023-02-26T08:43:26;100560.91;;;1.52;58.29
74895;BME280;63447;49.446;8.666;2023-02-26T08:45:54;100547.84;;;1.59;57.42
74895;BME280;63447;49.446;8.666;2023-02-26T08:48:20;100547.75;;;1.24;57.72
74895;BME280;63447;49.446;8.666;2023-02-26T08:50:48;100550.81;;;1.43;59.04
74895;BME280;63447;49.446;8.666;2023-02-26T08:53:13;100555.16;;;0.81;60.44
74895;BME280;63447;49.446;8.666;2023-02-26T08:55:39;100563.38;;;0.96;60.42
74895;BME280;63447;49.446;8.666;2023-02-26T08:58:04;100565.72;;;1.35;58.94
74895;BME280;63447;49.446;8.666;2023-02-26T09:00:30;100566.97;;;1.90;58.88
74895;BME280;63447;49.446;8.666;2023-02-26T09:02:55;100576.78;;;2.47;56.32
74895;BME280;63447;49.446;8.666;2023-02-26T09:05:21;100574.31;;;2.65;55.15
74895;BME280;63447;49.446;8.666;2023-02-26T09:07:46;100572.91;;;2.98;53.61
74895;BME280;63447;49.446;8.666;2023-02-26T09:10:16;100569.91;;;3.00;52.85
74895;BME280;63447;49.446;8.666;2023-02-26T09:12:42;100568.53;;;3.08;53.55
74895;BME280;63447;49.446;8.666;2023-02-26T09:15:09;100578.56;;;3.12;52.50
74895;BME280;63447;49.446;8.666;2023-02-26T09:17:41;100585.28;;;3.40;52.92
74895;BME280;63447;49.446;8.666;2023-02-26T09:20:07;100592.84;;;2.73;55.32
74895;BME280;63447;49.446;8.666;2023-02-26T09:22:33;100578.69;;;2.66;52.92
74895;BME280;63447;49.446;8.666;2023-02-26T09:25:01;100588.16;;;2.94;52.35
74895;BME280;63447;49.446;8.666;2023-02-26T09:27:29;100576.53;;;2.58;54.62
74895;BME280;63447;49.446;8.666;2023-02-26T09:29:56;100602.78;;;3.29;52.70
74895;BME280;63447;49.446;8.666;2023-02-26T09:32:22;100597.78;;;3.51;51.95
74895;BME280;63447;49.446;8.666;2023-02-26T09:34:48;100618.00;;;3.99;50.92
74895;BME280;63447;49.446;8.666;2023-02-26T09:37:13;100598.44;;;4.60;49.27
74895;BME280;63447;49.446;8.666;2023-02-26T09:39:38;100597.09;;;4.87;48.58
74895;BME280;63447;49.446;8.666;2023-02-26T09:43:06;100588.16;;;5.29;48.00
74895;BME280;63447;49.446;8.666;2023-02-26T09:45:02;100603.38;;;4.87;47.92
74895;BME280;63447;49.446;8.666;2023-02-26T09:47:53;100615.72;;;4.51;48.96
74895;BME280;63447;49.446;8.666;2023-02-26T09:50:24;100609.59;;;5.45;46.89
74895;BME280;63447;49.446;8.666;2023-02-26T09:55:40;100609.38;;;5.18;47.74
74895;BME280;63447;49.446;8.666;2023-02-26T09:58:28;100609.47;;;5.56;46.79
74895;BME280;63447;49.446;8.666;2023-02-26T10:01:15;100615.13;;;5.17;46.91
74895;BME280;63447;49.446;8.666;2023-02-26T10:06:48;100620.41;;;5.98;46.75
74895;BME280;63447;49.446;8.666;2023-02-26T10:14:26;100610.97;;;5.86;46.18
74895;BME280;63447;49.446;8.666;2023-02-26T10:16:59;100629.91;;;6.06;44.38
74895;BME280;63447;49.446;8.666;2023-02-26T10:19:39;100620.59;;;4.59;48.26
74895;BME280;63447;49.446;8.666;2023-02-26T10:22:22;100629.19;;;4.76;47.86
74895;BME280;63447;49.446;8.666;2023-02-26T10:24:57;100614.88;;;5.37;46.67
74895;BME280;63447;49.446;8.666;2023-02-26T10:27:57;100618.75;;;5.78;47.18
74895;BME280;63447;49.446;8.666;2023-02-26T10:30:34;100628.44;;;5.71;44.90
74895;BME280;63447;49.446;8.666;2023-02-26T10:35:51;100608.53;;;5.84;44.60
74895;BME280;63447;49.446;8.666;2023-02-26T10:38:23;100626.13;;;5.78;45.20
74895;BME280;63447;49.446;8.666;2023-02-26T10:40:55;100642.19;;;4.55;46.41
74895;BME280;63447;49.446;8.666;2023-02-26T10:43:32;100625.88;;;5.32;46.02
74895;BME280;63447;49.446;8.666;2023-02-26T10:51:11;100626.81;;;6.96;42.78
74895;BME280;63447;49.446;8.666;2023-02-26T10:53:42;100635.34;;;6.95;40.50
74895;BME280;63447;49.446;8.666;2023-02-26T10:56:12;100633.19;;;5.84;42.73
74895;BME280;63447;49.446;8.666;2023-02-26T10:58:38;100627.00;;;6.86;42.16
74895;BME280;63447;49.446;8.666;2023-02-26T11:01:06;100618.28;;;6.33;42.15
74895;BME280;63447;49.446;8.666;2023-02-26T11:03:38;100631.38;;;6.36;40.44
74895;BME280;63447;49.446;8.666;2023-02-26T11:06:05;100650.84;;;6.53;40.80
74895;BME280;63447;49.446;8.666;2023-02-26T11:08:42;100637.44;;;7.44;38.48
74895;BME280;63447;49.446;8.666;2023-02-26T11:11:07;100643.78;;;6.66;39.66
74895;BME280;63447;49.446;8.666;2023-02-26T11:13:36;100657.88;;;6.59;40.12
74895;BME280;63447;49.446;8.666;2023-02-26T11:16:05;100646.03;;;6.64;39.35
74895;BME280;63447;49.446;8.666;2023-02-26T11:18:46;100650.97;;;8.31;37.36
74895;BME280;63447;49.446;8.666;2023-02-26T11:21:20;100633.69;;;5.91;39.85
74895;BME280;63447;49.446;8.666;2023-02-26T11:23:56;100660.84;;;6.25;40.38
74895;BME280;63447;49.446;8.666;2023-02-26T11:26:26;100658.25;;;6.53;39.90
74895;BME280;63447;49.446;8.666;2023-02-26T11:28:54;100662.97;;;5.67;40.96
74895;BME280;63447;49.446;8.666;2023-02-26T11:31:22;100659.81;;;6.59;39.18
74895;BME280;63447;49.446;8.666;2023-02-26T11:33:58;100652.78;;;5.96;40.96
74895;BME280;63447;49.446;8.666;2023-02-26T11:36:28;100677.25;;;7.14;39.62
74895;BME280;63447;49.446;8.666;2023-02-26T11:39:04;100651.47;;;8.33;37.77
74895;BME280;63447;49.446;8.666;2023-02-26T11:41:36;100662.19;;;7.11;39.22
74895;BME280;63447;49.446;8.666;2023-02-26T11:44:06;100687.44;;;8.37;36.61
74895;BME280;63447;49.446;8.666;2023-02-26T11:46:38;100670.72;;;8.33;36.43
74895;BME280;63447;49.446;8.666;2023-02-26T11:49:04;100687.03;;;9.10;35.11
74895;BME280;63447;49.446;8.666;2023-02-26T11:51:29;100674.47;;;11.18;30.92
74895;BME280;63447;49.446;8.666;2023-02-26T11:53:57;100666.91;;;10.72;31.47
74895;BME280;63447;49.446;8.666;2023-02-26T11:56:36;100666.59;;;10.82;30.51
74895;BME280;63447;49.446;8.666;2023-02-26T11:59:26;100658.25;;;13.75;27.31
74895;BME280;63447;49.446;8.666;2023-02-26T12:01:52;100670.34;;;10.51;30.29
74895;BME280;63447;49.446;8.666;2023-02-26T12:04:22;100668.34;;;9.61;34.59
74895;BME280;63447;49.446;8.666;2023-02-26T12:06:52;100675.19;;;9.32;31.86
74895;BME280;63447;49.446;8.666;2023-02-26T12:09:19;100666.31;;;7.69;36.16
74895;BME280;63447;49.446;8.666;2023-02-26T12:22:47;100677.78;;;5.66;39.90
74895;BME280;63447;49.446;8.666;2023-02-26T12:39:07;100671.28;;;4.75;41.59
74895;BME280;63447;49.446;8.666;2023-02-26T12:41:42;100684.22;;;5.51;41.51
74895;BME280;63447;49.446;8.666;2023-02-26T12:52:04;100659.53;;;7.06;36.03
74895;BME280;63447;49.446;8.666;2023-02-26T13:08:13;100662.78;;;5.34;41.21
74895;BME280;63447;49.446;8.666;2023-02-26T13:10:56;100675.06;;;9.46;32.48
74895;BME280;63447;49.446;8.666;2023-02-26T13:13:51;100666.91;;;9.72;31.09
74895;BME280;63447;49.446;8.666;2023-02-26T13:16:46;100675.09;;;6.78;35.15
74895;BME280;63447;49.446;8.666;2023-02-26T13:19:27;100691.75;;;5.64;36.96
74895;BME280;63447;49.446;8.666;2023-02-26T13:22:01;100673.41;;;5.41;37.83
74895;BME280;63447;49.446;8.666;2023-02-26T13:24:37;100688.75;;;5.85;38.65
74895;BME280;63447;49.446;8.666;2023-02-26T13:27:08;100678.13;;;6.77;36.51
74895;BME280;63447;49.446;8.666;2023-02-26T13:29:50;100681.69;;;6.96;36.44
74895;BME280;63447;49.446;8.666;2023-02-26T13:32:24;100668.13;;;6.16;37.69
74895;BME280;63447;49.446;8.666;2023-02-26T13:35:03;100671.84;;;6.76;36.07
74895;BME280;63447;49.446;8.666;2023-02-26T13:37:40;100679.22;;;8.59;33.46
74895;BME280;63447;49.446;8.666;2023-02-26T13:40:46;100674.34;;;7.65;35.64
74895;BME280;63447;49.446;8.666;2023-02-26T13:43:14;100682.78;;;9.66;32.72
74895;BME280;63447;49.446;8.666;2023-02-26T13:51:40;100673.03;;;8.98;34.06
74895;BME280;63447;49.446;8.666;2023-02-26T14:06:51;100697.50;;;5.87;37.17
74895;BME280;63447;49.446;8.666;2023-02-26T14:14:23;100718.63;;;7.77;33.75
74895;BME280;63447;49.446;8.666;2023-02-26T14:19:41;100699.63;;;11.34;28.55
74895;BME280;63447;49.446;8.666;2023-02-26T14:24:43;100701.19;;;10.53;30.63
74895;BME280;63447;49.446;8.666;2023-02-26T14:32:28;100716.03;;;13.73;25.20
74895;BME280;63447;49.446;8.666;2023-02-26T14:34:57;100715.50;;;10.07;30.03
74895;BME280;63447;49.446;8.666;2023-02-26T14:37:27;100723.81;;;8.92;32.70
74895;BME280;63447;49.446;8.666;2023-02-26T14:40:03;100723.63;;;11.59;28.00
74895;BME280;63447;49.446;8.666;2023-02-26T14:42:41;100727.88;;;13.16;25.53
74895;BME280;63447;49.446;8.666;2023-02-26T14:47:46;100719.69;;;10.79;28.52
74895;BME280;63447;49.446;8.666;2023-02-26T14:50:22;100737.81;;;9.27;32.33
74895;BME280;63447;49.446;8.666;2023-02-26T14:56:20;100746.25;;;6.51;37.21
74895;BME280;63447;49.446;8.666;2023-02-26T15:08:30;100749.44;;;6.77;36.82
74895;BME280;63447;49.446;8.666;2023-02-26T15:13:49;100759.31;;;8.30;34.00
74895;BME280;63447;49.446;8.666;2023-02-26T15:16:29;100747.50;;;7.89;33.80
74895;BME280;63447;49.446;8.666;2023-02-26T15:19:01;100759.41;;;10.43;30.29
74895;BME280;63447;49.446;8.666;2023-02-26T15:24:14;100739.81;;;10.62;28.61
74895;BME280;63447;49.446;8.666;2023-02-26T15:27:06;100751.38;;;9.76;30.70
74895;BME280;63447;49.446;8.666;2023-02-26T15:29:37;100759.97;;;9.75;30.82
74895;BME280;63447;49.446;8.666;2023-02-26T15:32:17;100769.34;;;9.43;31.91
74895;BME280;63447;49.446;8.666;2023-02-26T15:34:47;100762.53;;;9.18;31.81
74895;BME280;63447;49.446;8.666;2023-02-26T15:37:26;100781.78;;;9.63;31.54
74895;BME280;63447;49.446;8.666;2023-02-26T15:39:54;100777.97;;;10.60;28.36
74895;BME280;63447;49.446;8.666;2023-02-26T15:42:27;100764.81;;;10.92;28.23
74895;BME280;63447;49.446;8.666;2023-02-26T15:44:58;100745.88;;;7.88;31.82
74895;BME280;63447;49.446;8.666;2023-02-26T15:47:26;100775.19;;;6.62;34.83
74895;BME280;63447;49.446;8.666;2023-02-26T15:49:53;100776.19;;;7.23;34.64
74895;BME280;63447;49.446;8.666;2023-02-26T15:52:29;100759.94;;;7.40;33.82
74895;BME280;63447;49.446;8.666;2023-02-26T15:54:59;100762.69;;;8.27;33.71